Homer, Alaska
Current Conditions -  °F | °C
As of 7:53 PM on Friday 24 Oct 2014 (Local Time) from PAHO Reporting Station
Overcast Overcast  
Wind Chill: 38°   Ceiling: 4500
Heat Index: 42°   Visibility: 10mi
Dew Point: 24°   Wind: 6mph
Humidity: 49%   Direction: 50°NE
Pressure: 29.87"   Gusts: NA
Location:  59.64°N, 151.55°W
Report Text: PAHO 250353Z 05005KT 10SM OVC045 06/M04 A2987 RMK SLP116 T00561044 VIA AUTODIAL
Loading
Personal Weather Stations






























Interactive Weather Map
Tropical Storm Tracking
New forecast layout! Learn more

10-Day Weather Forecast

Advertisements
Track Severe Weather on mobile